Terminal Aerodrome Forecast
Issued by NWS

Home | Current Version | Previous Version | Text Only | Print | Product List | Glossary On
Versions: 1 2 3 4 5 6 7 8 9 10 11 12 13 14 15 16 17
551
FTUS42 KTBW 060547
TAFPGD
TAF
KPGD 060547Z 0606/0706 16007KT P6SM SCT070 BKN250
     FM061300 19011G16KT P6SM VCSH SCT050 OVC070
     FM061600 20015G22KT P6SM SCT025 BKN040
      TEMPO 0616/0620 VRB20G25KT 3SM TSRA BKN020CB
     FM062100 22013G19KT P6SM SHRA BKN035 OVC050
     FM070200 27004KT P6SM SCT015 OVC025=

USA.gov is the U.S. government's official web portal to all federal, state and local government web resources and services.